sensor_id;sensor_type;location;lat;lon;timestamp;pressure;altitude;pressure_sealevel;temperature;humidity
5284;BME280;15377;48.540;9.268;2022-10-16T00:01:10;97251.94;;;14.61;100.00
5284;BME280;15377;48.540;9.268;2022-10-16T00:03:37;97245.88;;;14.57;100.00
5284;BME280;15377;48.540;9.268;2022-10-16T00:06:03;97256.47;;;14.53;100.00
5284;BME280;15377;48.540;9.268;2022-10-16T00:08:29;97256.94;;;14.46;100.00
5284;BME280;15377;48.540;9.268;2022-10-16T00:11:03;97249.13;;;14.50;100.00
5284;BME280;15377;48.540;9.268;2022-10-16T00:13:30;97248.91;;;14.48;100.00
5284;BME280;15377;48.540;9.268;2022-10-16T00:15:56;97246.84;;;14.43;100.00
5284;BME280;15377;48.540;9.268;2022-10-16T00:18:22;97230.47;;;14.28;100.00
5284;BME280;15377;48.540;9.268;2022-10-16T00:20:48;97244.84;;;14.32;100.00
5284;BME280;15377;48.540;9.268;2022-10-16T00:23:13;97241.56;;;14.28;100.00
5284;BME280;15377;48.540;9.268;2022-10-16T00:25:38;97238.47;;;14.15;100.00
5284;BME280;15377;48.540;9.268;2022-10-16T00:28:04;97249.78;;;14.12;100.00
5284;BME280;15377;48.540;9.268;2022-10-16T00:30:29;97257.28;;;14.00;100.00
5284;BME280;15377;48.540;9.268;2022-10-16T00:32:55;97263.81;;;13.92;100.00
5284;BME280;15377;48.540;9.268;2022-10-16T00:35:20;97256.75;;;13.85;100.00
5284;BME280;15377;48.540;9.268;2022-10-16T00:37:46;97249.41;;;13.82;100.00
5284;BME280;15377;48.540;9.268;2022-10-16T00:40:11;97255.72;;;13.83;100.00
5284;BME280;15377;48.540;9.268;2022-10-16T00:42:37;97272.09;;;13.92;100.00
5284;BME280;15377;48.540;9.268;2022-10-16T00:45:03;97265.06;;;13.96;100.00
5284;BME280;15377;48.540;9.268;2022-10-16T00:47:33;97257.25;;;13.95;100.00
5284;BME280;15377;48.540;9.268;2022-10-16T00:50:30;97271.34;;;13.91;100.00
5284;BME280;15377;48.540;9.268;2022-10-16T00:52:57;97259.22;;;13.78;100.00
5284;BME280;15377;48.540;9.268;2022-10-16T00:55:23;97271.78;;;13.79;100.00
5284;BME280;15377;48.540;9.268;2022-10-16T00:57:49;97271.78;;;13.79;100.00
5284;BME280;15377;48.540;9.268;2022-10-16T01:00:19;97260.69;;;13.68;100.00
5284;BME280;15377;48.540;9.268;2022-10-16T01:02:51;97265.66;;;13.64;100.00
5284;BME280;15377;48.540;9.268;2022-10-16T01:05:16;97246.28;;;13.53;100.00
5284;BME280;15377;48.540;9.268;2022-10-16T01:13:05;97263.66;;;13.59;100.00
5284;BME280;15377;48.540;9.268;2022-10-16T01:18:39;97284.56;;;13.71;100.00
5284;BME280;15377;48.540;9.268;2022-10-16T01:21:24;97273.50;;;13.71;100.00
5284;BME280;15377;48.540;9.268;2022-10-16T01:24:03;97282.34;;;13.75;100.00
5284;BME280;15377;48.540;9.268;2022-10-16T01:26:44;97279.56;;;13.69;100.00
5284;BME280;15377;48.540;9.268;2022-10-16T01:29:25;97285.81;;;13.70;100.00
5284;BME280;15377;48.540;9.268;2022-10-16T01:31:59;97283.06;;;13.70;100.00
5284;BME280;15377;48.540;9.268;2022-10-16T01:34:32;97270.94;;;13.62;100.00
5284;BME280;15377;48.540;9.268;2022-10-16T01:37:09;97272.75;;;13.70;100.00
5284;BME280;15377;48.540;9.268;2022-10-16T01:39:38;97265.19;;;13.65;100.00
5284;BME280;15377;48.540;9.268;2022-10-16T01:42:09;97271.47;;;13.66;100.00
5284;BME280;15377;48.540;9.268;2022-10-16T01:44:37;97255.03;;;13.46;100.00
5284;BME280;15377;48.540;9.268;2022-10-16T01:47:05;97278.72;;;13.58;100.00
5284;BME280;15377;48.540;9.268;2022-10-16T01:49:33;97279.19;;;13.51;100.00
5284;BME280;15377;48.540;9.268;2022-10-16T01:52:00;97280.22;;;13.53;100.00
5284;BME280;15377;48.540;9.268;2022-10-16T01:54:28;97271.66;;;13.57;100.00
5284;BME280;15377;48.540;9.268;2022-10-16T01:56:56;97272.47;;;13.63;100.00
5284;BME280;15377;48.540;9.268;2022-10-16T01:59:25;97277.50;;;13.64;100.00
5284;BME280;15377;48.540;9.268;2022-10-16T02:01:56;97276.50;;;13.67;100.00
5284;BME280;15377;48.540;9.268;2022-10-16T02:04:33;97267.19;;;13.65;100.00
5284;BME280;15377;48.540;9.268;2022-10-16T02:06:59;97277.72;;;13.61;100.00
5284;BME280;15377;48.540;9.268;2022-10-16T02:09:25;97265.88;;;13.55;100.00
5284;BME280;15377;48.540;9.268;2022-10-16T02:11:53;97274.72;;;13.59;100.00
5284;BME280;15377;48.540;9.268;2022-10-16T02:14:20;97273.19;;;13.58;100.00
5284;BME280;15377;48.540;9.268;2022-10-16T02:16:47;97253.50;;;13.45;100.00
5284;BME280;15377;48.540;9.268;2022-10-16T02:19:15;97272.16;;;13.50;100.00
5284;BME280;15377;48.540;9.268;2022-10-16T02:21:56;97264.13;;;13.52;100.00
5284;BME280;15377;48.540;9.268;2022-10-16T02:30:34;97258.19;;;13.75;100.00
5284;BME280;15377;48.540;9.268;2022-10-16T02:33:04;97263.78;;;13.81;100.00
5284;BME280;15377;48.540;9.268;2022-10-16T02:35:31;97270.56;;;13.85;100.00
5284;BME280;15377;48.540;9.268;2022-10-16T02:37:57;97256.69;;;13.80;100.00
5284;BME280;15377;48.540;9.268;2022-10-16T02:40:24;97276.41;;;13.98;100.00
5284;BME280;15377;48.540;9.268;2022-10-16T02:42:51;97266.34;;;13.95;100.00
5284;BME280;15377;48.540;9.268;2022-10-16T02:45:17;97255.75;;;13.94;100.00
5284;BME280;15377;48.540;9.268;2022-10-16T02:47:43;97248.94;;;13.89;100.00
5284;BME280;15377;48.540;9.268;2022-10-16T02:50:08;97255.28;;;13.95;100.00
5284;BME280;15377;48.540;9.268;2022-10-16T02:52:34;97275.44;;;14.07;100.00
5284;BME280;15377;48.540;9.268;2022-10-16T02:54:59;97269.91;;;14.07;100.00
5284;BME280;15377;48.540;9.268;2022-10-16T02:57:25;97274.66;;;14.01;100.00
5284;BME280;15377;48.540;9.268;2022-10-16T02:59:50;97274.38;;;13.93;100.00
5284;BME280;15377;48.540;9.268;2022-10-16T03:02:15;97276.88;;;13.91;100.00
5284;BME280;15377;48.540;9.268;2022-10-16T03:04:41;97265.31;;;13.93;100.00
5284;BME280;15377;48.540;9.268;2022-10-16T03:07:06;97274.09;;;13.91;100.00
5284;BME280;15377;48.540;9.268;2022-10-16T03:09:32;97266.03;;;13.88;100.00
5284;BME280;15377;48.540;9.268;2022-10-16T03:11:58;97264.75;;;13.83;100.00
5284;BME280;15377;48.540;9.268;2022-10-16T03:14:23;97268.75;;;13.77;100.00
5284;BME280;15377;48.540;9.268;2022-10-16T03:16:49;97261.66;;;13.65;100.00
5284;BME280;15377;48.540;9.268;2022-10-16T03:19:16;97267.72;;;13.69;100.00
5284;BME280;15377;48.540;9.268;2022-10-16T03:21:41;97266.22;;;13.68;100.00
5284;BME280;15377;48.540;9.268;2022-10-16T03:24:07;97274.28;;;13.71;100.00
5284;BME280;15377;48.540;9.268;2022-10-16T03:26:32;97273.50;;;13.71;100.00
5284;BME280;15377;48.540;9.268;2022-10-16T03:28:58;97265.44;;;13.67;100.00
5284;BME280;15377;48.540;9.268;2022-10-16T03:31:23;97261.19;;;13.72;100.00
5284;BME280;15377;48.540;9.268;2022-10-16T03:33:48;97270.28;;;13.78;100.00
5284;BME280;15377;48.540;9.268;2022-10-16T03:36:13;97278.56;;;13.78;100.00
5284;BME280;15377;48.540;9.268;2022-10-16T03:38:39;97282.06;;;13.73;100.00
5284;BME280;15377;48.540;9.268;2022-10-16T03:41:04;97275.22;;;13.63;100.00
5284;BME280;15377;48.540;9.268;2022-10-16T03:43:30;97282.25;;;13.64;100.00
5284;BME280;15377;48.540;9.268;2022-10-16T03:45:55;97283.53;;;13.63;100.00
5284;BME280;15377;48.540;9.268;2022-10-16T03:48:20;97280.00;;;13.62;100.00
5284;BME280;15377;48.540;9.268;2022-10-16T03:50:46;97284.25;;;13.58;100.00
5284;BME280;15377;48.540;9.268;2022-10-16T03:53:14;97272.16;;;13.50;100.00
5284;BME280;15377;48.540;9.268;2022-10-16T03:55:41;97282.47;;;13.55;100.00
5284;BME280;15377;48.540;9.268;2022-10-16T03:58:07;97290.03;;;13.60;100.00
5284;BME280;15377;48.540;9.268;2022-10-16T04:00:32;97291.31;;;13.59;100.00
5284;BME280;15377;48.540;9.268;2022-10-16T04:02:58;97278.66;;;13.47;100.00
5284;BME280;15377;48.540;9.268;2022-10-16T04:05:23;97291.31;;;13.59;100.00
5284;BME280;15377;48.540;9.268;2022-10-16T04:07:49;97283.53;;;13.63;100.00
5284;BME280;15377;48.540;9.268;2022-10-16T04:10:14;97285.31;;;13.66;100.00
5284;BME280;15377;48.540;9.268;2022-10-16T04:12:39;97292.06;;;13.65;100.00
5284;BME280;15377;48.540;9.268;2022-10-16T04:15:05;97299.31;;;13.57;100.00
5284;BME280;15377;48.540;9.268;2022-10-16T04:17:30;97295.78;;;13.51;100.00
5284;BME280;15377;48.540;9.268;2022-10-16T04:19:56;97298.25;;;13.49;100.00
5284;BME280;15377;48.540;9.268;2022-10-16T04:22:21;97298.25;;;13.49;100.00
5284;BME280;15377;48.540;9.268;2022-10-16T04:24:46;97296.75;;;13.48;100.00
5284;BME280;15377;48.540;9.268;2022-10-16T04:27:12;97311.31;;;13.43;100.00
5284;BME280;15377;48.540;9.268;2022-10-16T04:29:37;97301.22;;;13.40;100.00
5284;BME280;15377;48.540;9.268;2022-10-16T04:32:02;97302.50;;;13.44;100.00
5284;BME280;15377;48.540;9.268;2022-10-16T04:34:28;97297.19;;;13.41;100.00
5284;BME280;15377;48.540;9.268;2022-10-16T04:36:53;97303.28;;;13.45;100.00
5284;BME280;15377;48.540;9.268;2022-10-16T04:39:19;97302.03;;;13.46;100.00
5284;BME280;15377;48.540;9.268;2022-10-16T04:41:44;97295.47;;;13.43;100.00
5284;BME280;15377;48.540;9.268;2022-10-16T04:44:09;97293.22;;;13.42;100.00
5284;BME280;15377;48.540;9.268;2022-10-16T04:46:35;97282.63;;;13.35;100.00
5284;BME280;15377;48.540;9.268;2022-10-16T04:49:00;97289.44;;;13.45;100.00
5284;BME280;15377;48.540;9.268;2022-10-16T04:51:25;97298.50;;;13.45;100.00
5284;BME280;15377;48.540;9.268;2022-10-16T04:53:52;97301.00;;;13.43;100.00
5284;BME280;15377;48.540;9.268;2022-10-16T04:56:18;97299.56;;;13.53;100.00
5284;BME280;15377;48.540;9.268;2022-10-16T04:58:43;97289.47;;;13.50;100.00
5284;BME280;15377;48.540;9.268;2022-10-16T05:01:09;97304.63;;;13.60;100.00
5284;BME280;15377;48.540;9.268;2022-10-16T05:03:34;97305.38;;;13.61;100.00
5284;BME280;15377;48.540;9.268;2022-10-16T05:05:59;97307.56;;;13.51;100.00
5284;BME280;15377;48.540;9.268;2022-10-16T05:08:25;97323.19;;;13.54;100.00
5284;BME280;15377;48.540;9.268;2022-10-16T05:10:50;97323.41;;;13.51;100.00
5284;BME280;15377;48.540;9.268;2022-10-16T05:13:16;97320.91;;;13.53;100.00
5284;BME280;15377;48.540;9.268;2022-10-16T05:15:41;97323.41;;;13.51;100.00
5284;BME280;15377;48.540;9.268;2022-10-16T05:18:06;97321.34;;;13.40;100.00
5284;BME280;15377;48.540;9.268;2022-10-16T05:20:32;97332.44;;;13.46;100.00
5284;BME280;15377;48.540;9.268;2022-10-16T05:22:57;97326.38;;;13.42;100.00
5284;BME280;15377;48.540;9.268;2022-10-16T05:25:23;97327.31;;;13.33;100.00
5284;BME280;15377;48.540;9.268;2022-10-16T05:27:49;97336.06;;;13.26;100.00
5284;BME280;15377;48.540;9.268;2022-10-16T05:30:15;97323.44;;;13.20;100.00
5284;BME280;15377;48.540;9.268;2022-10-16T05:32:41;97314.31;;;13.08;100.00
5284;BME280;15377;48.540;9.268;2022-10-16T05:35:06;97327.19;;;13.17;100.00
5284;BME280;15377;48.540;9.268;2022-10-16T05:37:32;97328.16;;;13.14;100.00
5284;BME280;15377;48.540;9.268;2022-10-16T05:39:57;97334.97;;;13.18;100.00
5284;BME280;15377;48.540;9.268;2022-10-16T05:42:23;97312.47;;;13.00;100.00
5284;BME280;15377;48.540;9.268;2022-10-16T05:44:48;97334.34;;;13.03;100.00
5284;BME280;15377;48.540;9.268;2022-10-16T05:47:13;97342.59;;;12.98;100.00
5284;BME280;15377;48.540;9.268;2022-10-16T05:49:39;97338.50;;;12.93;100.00
5284;BME280;15377;48.540;9.268;2022-10-16T05:52:05;97348.25;;;12.89;100.00
5284;BME280;15377;48.540;9.268;2022-10-16T05:54:30;97338.69;;;12.84;100.00
5284;BME280;15377;48.540;9.268;2022-10-16T05:56:56;97357.06;;;12.93;100.00
5284;BME280;15377;48.540;9.268;2022-10-16T05:59:21;97339.72;;;12.87;100.00
5284;BME280;15377;48.540;9.268;2022-10-16T06:01:46;97354.75;;;13.11;100.00
5284;BME280;15377;48.540;9.268;2022-10-16T06:04:12;97351.06;;;13.20;100.00
5284;BME280;15377;48.540;9.268;2022-10-16T06:06:37;97356.66;;;13.25;100.00
5284;BME280;15377;48.540;9.268;2022-10-16T06:09:03;97345.81;;;13.22;100.00
5284;BME280;15377;48.540;9.268;2022-10-16T06:11:32;97360.69;;;13.30;100.00
5284;BME280;15377;48.540;9.268;2022-10-16T06:14:00;97366.25;;;13.35;100.00
5284;BME280;15377;48.540;9.268;2022-10-16T06:16:28;97369.03;;;13.35;100.00
5284;BME280;15377;48.540;9.268;2022-10-16T06:18:54;97354.66;;;13.26;100.00
5284;BME280;15377;48.540;9.268;2022-10-16T06:21:23;97372.63;;;13.47;100.00
5284;BME280;15377;48.540;9.268;2022-10-16T06:23:52;97377.72;;;13.54;100.00
5284;BME280;15377;48.540;9.268;2022-10-16T06:26:20;97379.50;;;13.57;100.00
5284;BME280;15377;48.540;9.268;2022-10-16T06:28:46;97385.81;;;13.63;100.00
5284;BME280;15377;48.540;9.268;2022-10-16T06:31:12;97365.66;;;13.57;100.00
5284;BME280;15377;48.540;9.268;2022-10-16T06:33:39;97383.91;;;13.74;100.00
5284;BME280;15377;48.540;9.268;2022-10-16T06:36:12;97386.19;;;13.76;100.00
5284;BME280;15377;48.540;9.268;2022-10-16T06:38:38;97388.50;;;13.83;100.00
5284;BME280;15377;48.540;9.268;2022-10-16T06:41:04;97379.44;;;13.88;100.00
5284;BME280;15377;48.540;9.268;2022-10-16T06:43:30;97385.56;;;13.97;100.00
5284;BME280;15377;48.540;9.268;2022-10-16T06:46:01;97395.69;;;14.11;100.00
5284;BME280;15377;48.540;9.268;2022-10-16T06:48:27;97384.66;;;14.17;100.00
5284;BME280;15377;48.540;9.268;2022-10-16T06:51:08;97404.41;;;14.41;100.00
5284;BME280;15377;48.540;9.268;2022-10-16T06:53:36;97407.03;;;14.61;100.00
5284;BME280;15377;48.540;9.268;2022-10-16T06:56:13;97404.06;;;14.80;100.00
5284;BME280;15377;48.540;9.268;2022-10-16T06:58:39;97392.00;;;14.94;100.00
5284;BME280;15377;48.540;9.268;2022-10-16T07:01:05;97396.81;;;15.10;100.00
5284;BME280;15377;48.540;9.268;2022-10-16T07:03:31;97389.53;;;15.18;100.00
5284;BME280;15377;48.540;9.268;2022-10-16T07:05:57;97412.25;;;15.33;100.00
5284;BME280;15377;48.540;9.268;2022-10-16T07:08:26;97413.78;;;15.34;100.00
5284;BME280;15377;48.540;9.268;2022-10-16T07:10:59;97425.38;;;15.38;100.00
5284;BME280;15377;48.540;9.268;2022-10-16T07:13:25;97420.84;;;15.46;100.00
5284;BME280;15377;48.540;9.268;2022-10-16T07:15:50;97409.50;;;15.50;100.00
5284;BME280;15377;48.540;9.268;2022-10-16T07:18:15;97428.41;;;15.62;100.00
5284;BME280;15377;48.540;9.268;2022-10-16T07:20:41;97422.84;;;15.73;100.00
5284;BME280;15377;48.540;9.268;2022-10-16T07:23:06;97426.88;;;15.94;100.00
5284;BME280;15377;48.540;9.268;2022-10-16T07:25:31;97431.38;;;16.08;100.00
5284;BME280;15377;48.540;9.268;2022-10-16T07:27:57;97436.16;;;16.19;100.00
5284;BME280;15377;48.540;9.268;2022-10-16T07:30:22;97435.63;;;16.31;100.00
5284;BME280;15377;48.540;9.268;2022-10-16T07:32:48;97440.94;;;16.40;100.00
5284;BME280;15377;48.540;9.268;2022-10-16T07:35:13;97438.16;;;16.46;100.00
5284;BME280;15377;48.540;9.268;2022-10-16T07:37:38;97446.94;;;16.55;100.00
5284;BME280;15377;48.540;9.268;2022-10-16T07:40:04;97443.94;;;16.53;100.00
5284;BME280;15377;48.540;9.268;2022-10-16T07:42:30;97459.03;;;16.63;100.00
5284;BME280;15377;48.540;9.268;2022-10-16T07:44:55;97477.72;;;16.68;100.00
5284;BME280;15377;48.540;9.268;2022-10-16T07:47:20;97489.31;;;16.78;100.00
5284;BME280;15377;48.540;9.268;2022-10-16T07:49:46;97488.28;;;16.81;100.00
5284;BME280;15377;48.540;9.268;2022-10-16T07:52:11;97510.41;;;17.08;100.00
5284;BME280;15377;48.540;9.268;2022-10-16T07:54:36;97507.56;;;17.25;100.00
5284;BME280;15377;48.540;9.268;2022-10-16T07:57:02;97498.41;;;17.41;100.00
5284;BME280;15377;48.540;9.268;2022-10-16T07:59:27;97490.47;;;17.50;100.00
5284;BME280;15377;48.540;9.268;2022-10-16T08:01:52;97509.75;;;17.83;100.00
5284;BME280;15377;48.540;9.268;2022-10-16T08:04:18;97513.28;;;18.13;100.00
5284;BME280;15377;48.540;9.268;2022-10-16T08:06:43;97531.91;;;18.29;100.00
5284;BME280;15377;48.540;9.268;2022-10-16T08:09:09;97553.44;;;18.29;100.00
5284;BME280;15377;48.540;9.268;2022-10-16T08:11:34;97567.69;;;18.20;100.00
5284;BME280;15377;48.540;9.268;2022-10-16T08:14:00;97564.38;;;18.21;100.00
5284;BME280;15377;48.540;9.268;2022-10-16T08:16:25;97563.06;;;18.28;100.00
5284;BME280;15377;48.540;9.268;2022-10-16T08:18:50;97564.06;;;18.36;100.00
5284;BME280;15377;48.540;9.268;2022-10-16T08:21:19;97542.88;;;18.51;100.00
5284;BME280;15377;48.540;9.268;2022-10-16T08:23:45;97545.91;;;18.77;100.00
5284;BME280;15377;48.540;9.268;2022-10-16T08:26:11;97562.06;;;19.08;100.00
5284;BME280;15377;48.540;9.268;2022-10-16T08:28:37;97566.34;;;19.09;100.00
5284;BME280;15377;48.540;9.268;2022-10-16T08:31:11;97587.81;;;19.19;100.00
5284;BME280;15377;48.540;9.268;2022-10-16T08:33:38;97587.84;;;19.38;100.00
5284;BME280;15377;48.540;9.268;2022-10-16T08:36:05;97591.84;;;19.79;100.00
5284;BME280;15377;48.540;9.268;2022-10-16T08:38:32;97588.75;;;20.01;100.00
5284;BME280;15377;48.540;9.268;2022-10-16T08:41:22;97598.72;;;20.47;100.00
5284;BME280;15377;48.540;9.268;2022-10-16T08:46:50;97596.41;;;20.64;100.00
5284;BME280;15377;48.540;9.268;2022-10-16T08:49:20;97618.59;;;20.75;100.00
5284;BME280;15377;48.540;9.268;2022-10-16T08:51:45;97611.69;;;20.63;100.00
5284;BME280;15377;48.540;9.268;2022-10-16T08:54:36;97618.50;;;20.49;100.00
5284;BME280;15377;48.540;9.268;2022-10-16T08:57:12;97621.41;;;20.43;100.00
5284;BME280;15377;48.540;9.268;2022-10-16T08:59:38;97606.03;;;20.37;100.00
5284;BME280;15377;48.540;9.268;2022-10-16T09:05:01;97623.59;;;20.50;100.00
5284;BME280;15377;48.540;9.268;2022-10-16T09:13:07;97630.81;;;20.59;100.00
5284;BME280;15377;48.540;9.268;2022-10-16T09:15:44;97629.91;;;20.82;100.00
5284;BME280;15377;48.540;9.268;2022-10-16T09:20:49;97638.03;;;21.90;100.00
5284;BME280;15377;48.540;9.268;2022-10-16T09:23:25;97637.03;;;22.88;100.00
5284;BME280;15377;48.540;9.268;2022-10-16T09:25:52;97656.13;;;23.09;100.00
5284;BME280;15377;48.540;9.268;2022-10-16T09:28:19;97662.34;;;22.75;100.00
5284;BME280;15377;48.540;9.268;2022-10-16T09:30:45;97646.81;;;22.74;100.00
5284;BME280;15377;48.540;9.268;2022-10-16T09:33:12;97659.50;;;22.88;100.00
5284;BME280;15377;48.540;9.268;2022-10-16T09:38:04;97660.16;;;22.27;100.00
5284;BME280;15377;48.540;9.268;2022-10-16T09:40:33;97661.81;;;22.09;100.00
5284;BME280;15377;48.540;9.268;2022-10-16T09:43:14;97652.22;;;22.05;100.00
5284;BME280;15377;48.540;9.268;2022-10-16T09:45:43;97633.53;;;21.87;100.00
5284;BME280;15377;48.540;9.268;2022-10-16T09:48:12;97653.91;;;22.21;100.00
5284;BME280;15377;48.540;9.268;2022-10-16T09:50:38;97649.13;;;22.29;100.00
5284;BME280;15377;48.540;9.268;2022-10-16T09:53:14;97651.50;;;22.04;100.00
5284;BME280;15377;48.540;9.268;2022-10-16T09:55:50;97651.00;;;21.80;100.00
5284;BME280;15377;48.540;9.268;2022-10-16T09:58:16;97658.13;;;21.68;100.00
5284;BME280;15377;48.540;9.268;2022-10-16T10:00:49;97650.88;;;21.46;100.00
5284;BME280;15377;48.540;9.268;2022-10-16T10:03:33;97648.19;;;21.28;100.00
5284;BME280;15377;48.540;9.268;2022-10-16T10:06:06;97657.88;;;21.27;100.00
5284;BME280;15377;48.540;9.268;2022-10-16T10:08:32;97661.97;;;21.13;100.00
5284;BME280;15377;48.540;9.268;2022-10-16T10:10:57;97666.56;;;20.97;100.00
5284;BME280;15377;48.540;9.268;2022-10-16T10:13:24;97666.25;;;21.01;100.00
5284;BME280;15377;48.540;9.268;2022-10-16T10:15:51;97661.53;;;21.22;100.00
5284;BME280;15377;48.540;9.268;2022-10-16T10:18:21;97659.59;;;21.17;100.00
5284;BME280;15377;48.540;9.268;2022-10-16T10:20:59;97649.03;;;20.97;100.00
5284;BME280;15377;48.540;9.268;2022-10-16T10:23:27;97657.28;;;20.89;100.00
5284;BME280;15377;48.540;9.268;2022-10-16T10:28:30;97656.00;;;20.90;100.00
5284;BME280;15377;48.540;9.268;2022-10-16T10:31:31;97625.78;;;21.28;100.00
5284;BME280;15377;48.540;9.268;2022-10-16T10:34:31;97651.38;;;21.97;100.00
5284;BME280;15377;48.540;9.268;2022-10-16T10:40:01;97631.34;;;22.80;100.00
5284;BME280;15377;48.540;9.268;2022-10-16T10:55:47;97645.53;;;22.75;100.00
5284;BME280;15377;48.540;9.268;2022-10-16T10:58:24;97641.59;;;22.57;100.00
5284;BME280;15377;48.540;9.268;2022-10-16T11:01:16;97641.94;;;22.54;100.00
5284;BME280;15377;48.540;9.268;2022-10-16T11:08:48;97649.53;;;22.46;100.00
5284;BME280;15377;48.540;9.268;2022-10-16T11:11:20;97635.88;;;22.42;100.00
5284;BME280;15377;48.540;9.268;2022-10-16T11:13:55;97653.31;;;22.69;100.00
5284;BME280;15377;48.540;9.268;2022-10-16T11:19:49;97643.84;;;22.99;100.00
5284;BME280;15377;48.540;9.268;2022-10-16T11:22:01;97633.03;;;23.03;100.00
5284;BME280;15377;48.540;9.268;2022-10-16T11:25:04;97645.50;;;23.15;100.00
5284;BME280;15377;48.540;9.268;2022-10-16T11:27:40;97644.81;;;23.22;100.00
5284;BME280;15377;48.540;9.268;2022-10-16T11:30:14;97636.84;;;23.13;100.00
5284;BME280;15377;48.540;9.268;2022-10-16T11:33:00;97637.56;;;23.06;100.00
5284;BME280;15377;48.540;9.268;2022-10-16T11:35:39;97627.63;;;23.05;100.00
5284;BME280;15377;48.540;9.268;2022-10-16T11:38:17;97637.31;;;23.17;100.00
5284;BME280;15377;48.540;9.268;2022-10-16T11:40:46;97636.53;;;23.17;100.00
5284;BME280;15377;48.540;9.268;2022-10-16T11:43:20;97636.47;;;23.09;100.00
5284;BME280;15377;48.540;9.268;2022-10-16T11:50:55;97631.13;;;22.98;100.00
5284;BME280;15377;48.540;9.268;2022-10-16T11:56:19;97617.25;;;22.73;100.00
5284;BME280;15377;48.540;9.268;2022-10-16T11:59:02;97628.47;;;22.73;100.00
5284;BME280;15377;48.540;9.268;2022-10-16T12:01:33;97623.75;;;22.68;100.00
5284;BME280;15377;48.540;9.268;2022-10-16T12:04:25;97627.59;;;22.78;100.00
5284;BME280;15377;48.540;9.268;2022-10-16T12:07:03;97629.31;;;22.81;100.00
5284;BME280;15377;48.540;9.268;2022-10-16T12:09:32;97635.19;;;22.90;100.00
5284;BME280;15377;48.540;9.268;2022-10-16T12:11:59;97612.38;;;22.73;100.00
5284;BME280;15377;48.540;9.268;2022-10-16T12:14:40;97615.56;;;22.70;100.00
5284;BME280;15377;48.540;9.268;2022-10-16T12:20:38;97609.78;;;22.96;100.00
5284;BME280;15377;48.540;9.268;2022-10-16T12:22:50;97638.66;;;23.24;100.00
5284;BME280;15377;48.540;9.268;2022-10-16T12:28:00;97631.06;;;23.39;100.00
5284;BME280;15377;48.540;9.268;2022-10-16T12:30:28;97619.44;;;23.35;100.00
5284;BME280;15377;48.540;9.268;2022-10-16T12:32:56;97625.84;;;23.43;100.00
5284;BME280;15377;48.540;9.268;2022-10-16T12:35:43;97637.34;;;23.53;100.00
5284;BME280;15377;48.540;9.268;2022-10-16T12:38:30;97635.53;;;23.35;100.00
5284;BME280;15377;48.540;9.268;2022-10-16T12:41:03;97647.81;;;23.24;100.00
5284;BME280;15377;48.540;9.268;2022-10-16T12:46:34;97641.66;;;23.54;100.00
5284;BME280;15377;48.540;9.268;2022-10-16T12:49:28;97640.19;;;23.60;100.00
5284;BME280;15377;48.540;9.268;2022-10-16T12:51:54;97641.41;;;23.44;100.00
5284;BME280;15377;48.540;9.268;2022-10-16T12:54:27;97626.16;;;23.32;100.00
5284;BME280;15377;48.540;9.268;2022-10-16T13:11:00;97634.75;;;23.90;97.93
5284;BME280;15377;48.540;9.268;2022-10-16T13:24:38;97650.13;;;23.97;100.00
5284;BME280;15377;48.540;9.268;2022-10-16T13:27:20;97652.00;;;23.94;100.00
5284;BME280;15377;48.540;9.268;2022-10-16T13:30:02;97629.81;;;23.83;100.00
5284;BME280;15377;48.540;9.268;2022-10-16T13:32:34;97654.22;;;23.88;100.00
5284;BME280;15377;48.540;9.268;2022-10-16T13:34:59;97658.69;;;23.84;100.00
5284;BME280;15377;48.540;9.268;2022-10-16T13:37:26;97660.41;;;23.87;98.25
5284;BME280;15377;48.540;9.268;2022-10-16T13:40:04;97645.88;;;23.75;100.00
5284;BME280;15377;48.540;9.268;2022-10-16T13:42:32;97645.44;;;23.64;100.00
5284;BME280;15377;48.540;9.268;2022-10-16T13:44:58;97649.66;;;23.50;100.00
5284;BME280;15377;48.540;9.268;2022-10-16T13:47:28;97650.97;;;23.49;100.00
5284;BME280;15377;48.540;9.268;2022-10-16T13:50:03;97650.13;;;23.61;100.00
5284;BME280;15377;48.540;9.268;2022-10-16T13:52:29;97642.84;;;23.66;100.00
5284;BME280;15377;48.540;9.268;2022-10-16T13:54:55;97646.59;;;23.68;100.00
5284;BME280;15377;48.540;9.268;2022-10-16T13:57:23;97640.66;;;23.79;100.00
5284;BME280;15377;48.540;9.268;2022-10-16T13:59:49;97643.66;;;23.81;100.00
5284;BME280;15377;48.540;9.268;2022-10-16T14:02:22;97635.44;;;23.83;100.00
5284;BME280;15377;48.540;9.268;2022-10-16T14:04:50;97636.56;;;23.80;100.00
5284;BME280;15377;48.540;9.268;2022-10-16T14:07:28;97650.50;;;23.93;100.00
5284;BME280;15377;48.540;9.268;2022-10-16T14:09:54;97652.69;;;23.87;100.00
5284;BME280;15377;48.540;9.268;2022-10-16T14:12:21;97645.16;;;23.82;100.00
5284;BME280;15377;48.540;9.268;2022-10-16T14:14:49;97639.13;;;23.71;100.00
5284;BME280;15377;48.540;9.268;2022-10-16T14:17:20;97651.84;;;23.72;100.00
5284;BME280;15377;48.540;9.268;2022-10-16T14:19:52;97637.38;;;23.60;100.00
5284;BME280;15377;48.540;9.268;2022-10-16T14:22:39;97627.44;;;23.59;100.00
5284;BME280;15377;48.540;9.268;2022-10-16T14:30:24;97640.47;;;24.20;100.00
5284;BME280;15377;48.540;9.268;2022-10-16T14:33:20;97648.91;;;24.20;100.00
5284;BME280;15377;48.540;9.268;2022-10-16T14:35:46;97643.06;;;24.11;100.00
5284;BME280;15377;48.540;9.268;2022-10-16T14:38:18;97632.00;;;24.13;100.00
5284;BME280;15377;48.540;9.268;2022-10-16T14:40:48;97648.69;;;24.11;100.00
5284;BME280;15377;48.540;9.268;2022-10-16T14:43:21;97650.13;;;23.97;100.00
5284;BME280;15377;48.540;9.268;2022-10-16T14:45:51;97641.06;;;23.83;100.00
5284;BME280;15377;48.540;9.268;2022-10-16T14:48:18;97643.38;;;23.92;100.00
5284;BME280;15377;48.540;9.268;2022-10-16T14:50:44;97637.97;;;24.02;100.00
5284;BME280;15377;48.540;9.268;2022-10-16T14:53:11;97654.16;;;24.16;100.00
5284;BME280;15377;48.540;9.268;2022-10-16T14:55:38;97657.72;;;24.17;100.00